createdAt,value
2018-07-01T00:00:32.295Z,1010.92
2018-07-01T00:01:32.319Z,1010.89
2018-07-01T00:02:32.343Z,1010.90
2018-07-01T00:03:32.365Z,1010.93
2018-07-01T00:04:32.385Z,1010.92
2018-07-01T00:05:32.409Z,1010.90
2018-07-01T00:06:32.431Z,1010.90
2018-07-01T00:07:32.453Z,1010.92
2018-07-01T00:08:32.482Z,1010.92
2018-07-01T00:09:32.497Z,1010.92
2018-07-01T00:10:32.520Z,1010.87
2018-07-01T00:11:32.546Z,1010.85
2018-07-01T00:12:32.570Z,1010.85
2018-07-01T00:13:38.856Z,1010.87
2018-07-01T00:14:32.612Z,1010.86
2018-07-01T00:15:32.632Z,1010.87
2018-07-01T00:16:32.659Z,1010.90
2018-07-01T00:17:32.679Z,1010.91
2018-07-01T00:18:32.703Z,1010.95
2018-07-01T00:19:32.727Z,1010.94
2018-07-01T00:20:32.748Z,1011.00
2018-07-01T00:21:32.767Z,1010.92
2018-07-01T00:22:32.791Z,1011.02
2018-07-01T00:23:32.812Z,1010.98
2018-07-01T00:24:32.835Z,1011.00
2018-07-01T00:25:32.860Z,1011.01
2018-07-01T00:26:32.880Z,1011.01
2018-07-01T00:27:32.905Z,1011.04
2018-07-01T00:28:32.926Z,1010.97
2018-07-01T00:29:32.949Z,1011.01
2018-07-01T00:30:32.969Z,1011.00
2018-07-01T00:31:32.992Z,1011.02
2018-07-01T00:32:33.015Z,1011.03
2018-07-01T00:33:33.038Z,1011.03
2018-07-01T00:34:33.061Z,1011.04
2018-07-01T00:35:33.084Z,1011.04
2018-07-01T00:36:33.106Z,1011.02
2018-07-01T00:37:33.129Z,1011.02
2018-07-01T00:38:33.152Z,1011.00
2018-07-01T00:39:33.178Z,1011.00
2018-07-01T00:40:33.194Z,1011.04
2018-07-01T00:41:33.218Z,1010.95
2018-07-01T00:42:33.242Z,1010.98
2018-07-01T00:43:33.260Z,1010.95
2018-07-01T00:44:33.287Z,1010.92
2018-07-01T00:45:33.305Z,1010.92
2018-07-01T00:46:33.331Z,1010.91
2018-07-01T00:47:33.350Z,1010.94
2018-07-01T00:48:33.373Z,1010.86
2018-07-01T00:49:33.398Z,1010.87
2018-07-01T00:50:33.417Z,1010.89
2018-07-01T00:51:33.440Z,1010.87
2018-07-01T00:52:33.463Z,1010.88
2018-07-01T00:53:33.484Z,1010.90
2018-07-01T00:54:33.506Z,1010.88
2018-07-01T00:55:33.529Z,1010.88
2018-07-01T00:56:33.552Z,1010.93
2018-07-01T00:57:33.575Z,1010.90
2018-07-01T00:58:33.595Z,1010.95
2018-07-01T00:59:33.618Z,1010.92
2018-07-01T01:00:33.643Z,1010.91
2018-07-01T01:01:33.662Z,1010.90
2018-07-01T01:02:33.684Z,1010.88
2018-07-01T01:03:33.709Z,1010.93
2018-07-01T01:04:33.731Z,1010.87
2018-07-01T01:05:33.753Z,1010.91
2018-07-01T01:06:33.774Z,1010.90
2018-07-01T01:07:33.800Z,1010.91
2018-07-01T01:08:33.821Z,1010.95
2018-07-01T01:09:33.842Z,1010.92
2018-07-01T01:10:33.869Z,1010.94
2018-07-01T01:11:33.887Z,1010.91
2018-07-01T01:12:33.907Z,1010.91
2018-07-01T01:13:33.934Z,1010.87
2018-07-01T01:14:33.955Z,1010.91
2018-07-01T01:15:33.977Z,1010.93
2018-07-01T01:16:33.997Z,1010.97
2018-07-01T01:17:34.017Z,1010.93
2018-07-01T01:18:34.043Z,1010.94
2018-07-01T01:19:34.067Z,1010.92
2018-07-01T01:20:34.085Z,1010.93
2018-07-01T01:21:34.110Z,1010.92
2018-07-01T01:22:34.132Z,1010.89
2018-07-01T01:23:34.151Z,1010.91
2018-07-01T01:24:34.176Z,1010.87
2018-07-01T01:25:34.197Z,1010.90
2018-07-01T01:26:34.221Z,1010.93
2018-07-01T01:27:34.241Z,1010.90
2018-07-01T01:28:34.265Z,1010.89
2018-07-01T01:29:34.286Z,1010.91
2018-07-01T01:30:34.310Z,1010.91
2018-07-01T01:31:34.333Z,1010.90
2018-07-01T01:32:34.354Z,1010.91
2018-07-01T01:33:34.376Z,1010.97
2018-07-01T01:34:34.397Z,1010.96
2018-07-01T01:35:34.420Z,1010.98
2018-07-01T01:36:34.444Z,1010.96
2018-07-01T01:37:34.464Z,1010.97
2018-07-01T01:38:34.486Z,1011.02
2018-07-01T01:39:34.509Z,1010.98
2018-07-01T01:40:34.529Z,1011.00
2018-07-01T01:41:34.554Z,1010.95
2018-07-01T01:42:34.575Z,1010.99
2018-07-01T01:43:34.595Z,1010.98
2018-07-01T01:44:34.619Z,1011.00
2018-07-01T01:45:34.638Z,1011.02
2018-07-01T01:46:34.661Z,1011.03
2018-07-01T01:47:34.684Z,1011.00
2018-07-01T01:48:34.709Z,1010.99
2018-07-01T01:49:34.727Z,1011.00
2018-07-01T01:50:34.753Z,1010.98
2018-07-01T01:51:34.780Z,1010.99
2018-07-01T01:52:34.796Z,1011.01
2018-07-01T01:53:34.818Z,1010.98
2018-07-01T01:54:34.839Z,1011.01
2018-07-01T01:55:34.860Z,1011.03
2018-07-01T01:56:34.886Z,1011.01
2018-07-01T01:57:34.907Z,1010.98
2018-07-01T01:58:34.926Z,1010.98
2018-07-01T01:59:34.950Z,1010.99
2018-07-01T02:00:34.971Z,1010.98
2018-07-01T02:01:34.990Z,1011.01
2018-07-01T02:02:35.016Z,1011.02
2018-07-01T02:03:35.038Z,1011.00
2018-07-01T02:04:35.059Z,1010.98
2018-07-01T02:05:35.087Z,1010.97
2018-07-01T02:06:35.106Z,1011.01
2018-07-01T02:07:35.127Z,1011.03
2018-07-01T02:08:35.152Z,1011.04
2018-07-01T02:09:35.170Z,1011.04
2018-07-01T02:10:35.192Z,1011.03
2018-07-01T02:11:35.212Z,1011.04
2018-07-01T02:12:35.235Z,1011.02
2018-07-01T02:13:35.261Z,1011.04
2018-07-01T02:14:35.280Z,1011.06
2018-07-01T02:15:35.303Z,1011.06
2018-07-01T02:16:35.325Z,1011.06
2018-07-01T02:17:35.351Z,1011.12
2018-07-01T02:18:35.365Z,1011.10
2018-07-01T02:19:35.390Z,1011.06
2018-07-01T02:20:35.412Z,1011.14
2018-07-01T02:21:35.432Z,1011.12
2018-07-01T02:22:35.455Z,1011.12
2018-07-01T02:23:35.476Z,1011.13
2018-07-01T02:24:35.498Z,1011.11
2018-07-01T02:25:35.521Z,1011.13
2018-07-01T02:26:35.541Z,1011.15
2018-07-01T02:27:35.566Z,1011.13
2018-07-01T02:28:35.589Z,1011.16
2018-07-01T02:29:35.610Z,1011.15
2018-07-01T02:30:35.631Z,1011.16
2018-07-01T02:31:35.652Z,1011.17
2018-07-01T02:32:35.674Z,1011.17
2018-07-01T02:33:35.698Z,1011.19
2018-07-01T02:34:35.719Z,1011.18
2018-07-01T02:35:35.743Z,1011.20
2018-07-01T02:36:35.764Z,1011.21
2018-07-01T02:37:35.783Z,1011.19
2018-07-01T02:38:35.805Z,1011.25
2018-07-01T02:39:35.827Z,1011.20
2018-07-01T02:40:35.858Z,1011.24
2018-07-01T02:41:35.876Z,1011.22
2018-07-01T02:42:35.900Z,1011.23
2018-07-01T02:43:35.921Z,1011.18
2018-07-01T02:44:35.940Z,1011.20
2018-07-01T02:45:35.958Z,1011.21
2018-07-01T02:46:35.982Z,1011.22
2018-07-01T02:47:36.002Z,1011.18
2018-07-01T02:48:36.026Z,1011.20
2018-07-01T02:49:36.047Z,1011.23
2018-07-01T02:50:36.073Z,1011.17
2018-07-01T02:51:36.093Z,1011.20
2018-07-01T02:52:36.114Z,1011.24
2018-07-01T02:53:36.143Z,1011.24
2018-07-01T02:54:36.155Z,1011.28
2018-07-01T02:55:36.181Z,1011.29
2018-07-01T02:56:36.200Z,1011.32
2018-07-01T02:57:36.221Z,1011.28
2018-07-01T02:58:36.246Z,1011.32
2018-07-01T02:59:36.267Z,1011.31
2018-07-01T03:00:36.290Z,1011.33
2018-07-01T03:01:36.311Z,1011.35
2018-07-01T03:02:36.331Z,1011.34
2018-07-01T03:03:36.355Z,1011.38
2018-07-01T03:04:36.380Z,1011.39
2018-07-01T03:05:36.395Z,1011.37
2018-07-01T03:06:36.419Z,1011.35
2018-07-01T03:07:36.442Z,1011.38
2018-07-01T03:08:36.466Z,1011.39
2018-07-01T03:09:36.489Z,1011.36
2018-07-01T03:10:36.505Z,1011.31
2018-07-01T03:11:36.527Z,1011.43
2018-07-01T03:12:36.549Z,1011.36
2018-07-01T03:13:36.572Z,1011.40
2018-07-01T03:14:36.593Z,1011.41
2018-07-01T03:15:36.617Z,1011.38
2018-07-01T03:16:36.639Z,1011.36
2018-07-01T03:17:36.659Z,1011.44
2018-07-01T03:18:36.680Z,1011.43
2018-07-01T03:19:36.703Z,1011.42
2018-07-01T03:20:36.723Z,1011.42
2018-07-01T03:21:36.746Z,1011.43
2018-07-01T03:22:36.770Z,1011.41
2018-07-01T03:23:36.789Z,1011.40
2018-07-01T03:24:36.811Z,1011.40
2018-07-01T03:25:36.834Z,1011.37
2018-07-01T03:26:36.857Z,1011.40
2018-07-01T03:27:36.878Z,1011.43
2018-07-01T03:28:36.899Z,1011.46
2018-07-01T03:29:36.921Z,1011.44
2018-07-01T03:30:36.941Z,1011.44
2018-07-01T03:31:36.966Z,1011.46
2018-07-01T03:32:36.986Z,1011.44
2018-07-01T03:33:37.007Z,1011.42
2018-07-01T03:34:37.029Z,1011.45
2018-07-01T03:35:37.052Z,1011.50
2018-07-01T03:36:37.073Z,1011.49
2018-07-01T03:37:37.092Z,1011.47
2018-07-01T03:38:37.116Z,1011.48
2018-07-01T03:39:37.138Z,1011.54
2018-07-01T03:40:37.164Z,1011.49
2018-07-01T03:41:37.180Z,1011.52
2018-07-01T03:42:37.201Z,1011.47
2018-07-01T03:43:37.223Z,1011.45
2018-07-01T03:44:37.248Z,1011.43
2018-07-01T03:45:37.269Z,1011.46
2018-07-01T03:46:37.290Z,1011.49
2018-07-01T03:47:37.317Z,1011.47
2018-07-01T03:48:37.335Z,1011.50
2018-07-01T03:49:37.352Z,1011.50
2018-07-01T03:50:37.374Z,1011.53
2018-07-01T03:51:37.396Z,1011.54
2018-07-01T03:52:37.421Z,1011.56
2018-07-01T03:53:37.442Z,1011.58
2018-07-01T03:54:37.463Z,1011.57
2018-07-01T03:55:37.485Z,1011.56
2018-07-01T03:56:37.505Z,1011.56
2018-07-01T03:57:37.581Z,1011.60
2018-07-01T03:58:37.551Z,1011.57
2018-07-01T03:59:37.570Z,1011.62
2018-07-01T04:00:37.591Z,1011.59
2018-07-01T04:01:37.613Z,1011.62
2018-07-01T04:02:37.635Z,1011.62
2018-07-01T04:03:37.656Z,1011.64
2018-07-01T04:04:37.679Z,1011.63
2018-07-01T04:05:37.699Z,1011.61
2018-07-01T04:06:37.721Z,1011.64
2018-07-01T04:07:37.745Z,1011.62
2018-07-01T04:08:37.768Z,1011.58
2018-07-01T04:09:37.789Z,1011.66
2018-07-01T04:10:37.807Z,1011.71
2018-07-01T04:11:37.835Z,1011.66
2018-07-01T04:12:37.852Z,1011.67
2018-07-01T04:13:37.875Z,1011.71
2018-07-01T04:14:37.896Z,1011.72
2018-07-01T04:15:37.917Z,1011.71
2018-07-01T04:16:37.942Z,1011.74
2018-07-01T04:17:37.962Z,1011.72
2018-07-01T04:18:37.985Z,1011.74
2018-07-01T04:19:38.003Z,1011.75
2018-07-01T04:20:38.027Z,1011.76
2018-07-01T04:21:38.049Z,1011.77
2018-07-01T04:22:38.069Z,1011.77
2018-07-01T04:23:38.093Z,1011.76
2018-07-01T04:24:38.115Z,1011.79
2018-07-01T04:25:38.133Z,1011.80
2018-07-01T04:26:38.154Z,1011.77
2018-07-01T04:27:38.176Z,1011.82
2018-07-01T04:28:38.201Z,1011.78
2018-07-01T04:29:38.221Z,1011.80
2018-07-01T04:30:38.241Z,1011.74
2018-07-01T04:31:38.263Z,1011.78
2018-07-01T04:32:38.287Z,1011.80
2018-07-01T04:33:38.306Z,1011.78
2018-07-01T04:34:38.328Z,1011.76
2018-07-01T04:35:38.350Z,1011.78
2018-07-01T04:36:38.376Z,1011.77
2018-07-01T04:37:38.394Z,1011.75
2018-07-01T04:38:38.417Z,1011.75
2018-07-01T04:39:38.443Z,1011.71
2018-07-01T04:40:38.459Z,1011.76
2018-07-01T04:41:38.485Z,1011.77
2018-07-01T04:42:38.505Z,1011.78
2018-07-01T04:43:38.525Z,1011.80
2018-07-01T04:44:38.547Z,1011.78
2018-07-01T04:45:38.567Z,1011.75
2018-07-01T04:46:38.592Z,1011.78
2018-07-01T04:47:38.614Z,1011.80
2018-07-01T04:48:38.635Z,1011.77
2018-07-01T04:49:38.655Z,1011.78
2018-07-01T04:50:38.677Z,1011.76
2018-07-01T04:51:38.701Z,1011.72
2018-07-01T04:52:38.727Z,1011.79
2018-07-01T04:53:38.740Z,1011.82
2018-07-01T04:54:38.771Z,1011.92
2018-07-01T04:55:38.786Z,1011.87
2018-07-01T04:56:38.808Z,1011.91
2018-07-01T04:57:38.829Z,1011.92
2018-07-01T04:58:38.853Z,1011.90
2018-07-01T04:59:38.872Z,1011.90
2018-07-01T05:00:38.895Z,1011.94
2018-07-01T05:01:38.917Z,1011.95
2018-07-01T05:02:38.937Z,1011.92
2018-07-01T05:03:38.959Z,1011.87
2018-07-01T05:04:38.981Z,1011.92
2018-07-01T05:05:39.003Z,1011.94
2018-07-01T05:06:39.029Z,1011.98
2018-07-01T05:07:39.049Z,1011.91
2018-07-01T05:08:39.073Z,1012.03
2018-07-01T05:09:39.090Z,1012.03
2018-07-01T05:10:39.115Z,1012.04
2018-07-01T05:11:39.136Z,1012.11
2018-07-01T05:12:39.158Z,1012.03
2018-07-01T05:13:39.179Z,1012.02
2018-07-01T05:14:39.204Z,1012.04
2018-07-01T05:15:39.227Z,1012.03
2018-07-01T05:16:39.252Z,1012.07
2018-07-01T05:17:39.272Z,1012.03
2018-07-01T05:18:39.294Z,1012.10
2018-07-01T05:19:39.315Z,1012.07
2018-07-01T05:20:39.337Z,1012.02
2018-07-01T05:21:39.359Z,1012.06
2018-07-01T05:22:39.384Z,1012.06
2018-07-01T05:23:39.407Z,1012.12
2018-07-01T05:24:39.429Z,1012.09
2018-07-01T05:25:39.450Z,1012.10
2018-07-01T05:26:39.474Z,1012.15
2018-07-01T05:27:39.618Z,1012.15
2018-07-01T05:28:39.520Z,1012.17
2018-07-01T05:29:39.539Z,1012.15
2018-07-01T05:30:39.564Z,1012.15
2018-07-01T05:31:39.594Z,1012.10
2018-07-01T05:32:39.616Z,1012.12
2018-07-01T05:33:39.671Z,1012.13
2018-07-01T05:34:39.656Z,1012.13
2018-07-01T05:35:39.685Z,1012.21
2018-07-01T05:36:39.705Z,1012.20
2018-07-01T05:37:39.728Z,1012.15
2018-07-01T05:38:39.750Z,1012.23
2018-07-01T05:39:39.775Z,1012.14
2018-07-01T05:40:39.796Z,1012.17
2018-07-01T05:41:39.817Z,1012.19
2018-07-01T05:42:39.843Z,1012.24
2018-07-01T05:43:39.869Z,1012.25
2018-07-01T05:44:39.889Z,1012.24
2018-07-01T05:45:39.914Z,1012.24
2018-07-01T05:46:39.936Z,1012.27
2018-07-01T05:47:39.959Z,1012.26
2018-07-01T05:48:39.983Z,1012.33
2018-07-01T05:49:40.006Z,1012.37
2018-07-01T05:50:40.032Z,1012.34
2018-07-01T05:51:40.055Z,1012.32
2018-07-01T05:52:40.080Z,1012.34
2018-07-01T05:53:40.100Z,1012.41
2018-07-01T05:54:40.124Z,1012.42
2018-07-01T05:55:40.149Z,1012.40
2018-07-01T05:56:40.174Z,1012.43
2018-07-01T05:57:40.197Z,1012.35
2018-07-01T05:58:40.222Z,1012.34
2018-07-01T05:59:40.246Z,1012.34
2018-07-01T06:00:40.271Z,1012.40
2018-07-01T06:01:40.297Z,1012.38
2018-07-01T06:02:40.316Z,1012.36
2018-07-01T06:03:40.342Z,1012.40
2018-07-01T06:04:40.369Z,1012.43
2018-07-01T06:05:40.390Z,1012.42
2018-07-01T06:06:40.418Z,1012.45
2018-07-01T06:07:40.439Z,1012.49
2018-07-01T06:08:40.518Z,1012.51
2018-07-01T06:09:40.489Z,1012.44
2018-07-01T06:10:40.513Z,1012.44
2018-07-01T06:11:40.540Z,1012.46
2018-07-01T06:12:40.563Z,1012.43
2018-07-01T06:13:40.590Z,1012.41
2018-07-01T06:14:40.614Z,1012.43
2018-07-01T06:15:40.638Z,1012.41
2018-07-01T06:16:40.701Z,1012.41
2018-07-01T06:17:40.705Z,1012.46
2018-07-01T06:18:40.736Z,1012.39
2018-07-01T06:19:40.735Z,1012.42
2018-07-01T06:20:40.760Z,1012.41
2018-07-01T06:21:40.784Z,1012.44
2018-07-01T06:22:40.813Z,1012.41
2018-07-01T06:23:40.837Z,1012.44
2018-07-01T06:24:40.896Z,1012.48
2018-07-01T06:25:40.886Z,1012.39
2018-07-01T06:26:40.911Z,1012.40
2018-07-01T06:27:40.935Z,1012.37
2018-07-01T06:28:40.965Z,1012.42
2018-07-01T06:29:40.988Z,1012.43
2018-07-01T06:30:41.013Z,1012.42
2018-07-01T06:31:41.039Z,1012.32
2018-07-01T06:32:41.092Z,1012.34
2018-07-01T06:33:41.092Z,1012.41
2018-07-01T06:34:41.117Z,1012.40
2018-07-01T06:35:41.146Z,1012.41
2018-07-01T06:36:41.168Z,1012.40
2018-07-01T06:37:41.193Z,1012.41
2018-07-01T06:38:41.219Z,1012.39
2018-07-01T06:39:41.248Z,1012.48
2018-07-01T06:40:41.276Z,1012.39
2018-07-01T06:41:41.296Z,1012.47
2018-07-01T06:42:41.327Z,1012.47
2018-07-01T06:43:41.350Z,1012.45
2018-07-01T06:44:41.376Z,1012.46
2018-07-01T06:45:41.404Z,1012.47
2018-07-01T06:46:41.430Z,1012.47
2018-07-01T06:47:41.459Z,1012.53
2018-07-01T06:48:41.485Z,1012.44
2018-07-01T06:49:41.508Z,1012.45
2018-07-01T06:50:41.538Z,1012.49
2018-07-01T06:51:41.565Z,1012.49
2018-07-01T06:52:41.590Z,1012.48
2018-07-01T06:53:41.618Z,1012.47
2018-07-01T06:54:41.641Z,1012.53
2018-07-01T06:55:41.669Z,1012.45
2018-07-01T06:56:41.699Z,1012.54
2018-07-01T06:57:41.723Z,1012.54
2018-07-01T06:58:41.750Z,1012.55
2018-07-01T06:59:41.777Z,1012.57
2018-07-01T07:00:41.808Z,1012.50
2018-07-01T07:01:41.835Z,1012.61
2018-07-01T07:02:41.862Z,1012.61
2018-07-01T07:03:41.888Z,1012.54
2018-07-01T07:04:41.916Z,1012.48
2018-07-01T07:05:41.940Z,1012.50
2018-07-01T07:06:41.971Z,1012.39
2018-07-01T07:07:42.021Z,1012.56
2018-07-01T07:08:42.027Z,1012.46
2018-07-01T07:09:42.054Z,1012.46
2018-07-01T07:10:42.079Z,1012.57
2018-07-01T07:11:42.109Z,1012.52
2018-07-01T07:12:42.134Z,1012.52
2018-07-01T07:13:42.162Z,1012.60
2018-07-01T07:14:42.189Z,1012.59
2018-07-01T07:15:42.216Z,1012.66
2018-07-01T07:16:42.248Z,1012.61
2018-07-01T07:17:42.274Z,1012.73
2018-07-01T07:18:42.305Z,1012.66
2018-07-01T07:19:42.331Z,1012.66
2018-07-01T07:20:42.362Z,1012.69
2018-07-01T07:21:42.384Z,1012.72
2018-07-01T07:22:42.416Z,1012.74
2018-07-01T07:23:42.443Z,1012.87
2018-07-01T07:24:42.470Z,1012.97
2018-07-01T07:25:42.501Z,1013.08
2018-07-01T07:26:42.532Z,1013.22
2018-07-01T07:27:42.554Z,1013.32
2018-07-01T07:28:42.586Z,1013.40
2018-07-01T07:29:42.611Z,1013.37
2018-07-01T07:30:42.642Z,1013.35
2018-07-01T07:31:42.673Z,1013.48
2018-07-01T07:32:42.699Z,1013.76
2018-07-01T07:33:42.726Z,1013.90
2018-07-01T07:34:42.755Z,1013.95
2018-07-01T07:35:42.785Z,1014.05
2018-07-01T07:36:42.815Z,1014.03
2018-07-01T07:37:42.840Z,1014.20
2018-07-01T07:38:42.869Z,1014.19
2018-07-01T07:39:42.910Z,1014.02
2018-07-01T07:40:42.927Z,1013.82
2018-07-01T07:41:45.983Z,1013.78
2018-07-01T07:42:42.989Z,1013.59
2018-07-01T07:43:43.017Z,1013.50
2018-07-01T07:44:43.049Z,1013.40
2018-07-01T07:45:43.071Z,1013.46
2018-07-01T07:46:43.100Z,1013.26
2018-07-01T07:47:43.132Z,1013.16
2018-07-01T07:48:43.209Z,1013.13
2018-07-01T07:49:43.187Z,1013.18
2018-07-01T07:50:43.218Z,1013.13
2018-07-01T07:51:43.249Z,1013.12
2018-07-01T07:52:43.276Z,1013.13
2018-07-01T07:53:43.305Z,1013.14
2018-07-01T07:54:43.333Z,1013.12
2018-07-01T07:55:43.366Z,1013.18
2018-07-01T07:56:43.394Z,1013.10
2018-07-01T07:57:43.422Z,1013.11
2018-07-01T07:58:43.455Z,1013.03
2018-07-01T07:59:43.484Z,1013.06
2018-07-01T08:00:43.510Z,1013.06
2018-07-01T08:01:43.539Z,1013.00
2018-07-01T08:02:43.573Z,1012.96
2018-07-01T08:03:43.600Z,1013.05
2018-07-01T08:04:43.629Z,1013.07
2018-07-01T08:05:43.661Z,1012.95
2018-07-01T08:06:43.690Z,1012.95
2018-07-01T08:07:43.717Z,1012.98
2018-07-01T08:08:43.749Z,1012.99
2018-07-01T08:09:43.781Z,1012.98
2018-07-01T08:10:43.808Z,1013.04
2018-07-01T08:11:43.839Z,1013.01
2018-07-01T08:12:43.891Z,1013.03
2018-07-01T08:13:43.898Z,1013.05
2018-07-01T08:14:43.925Z,1013.00
2018-07-01T08:15:43.957Z,1013.03
2018-07-01T08:16:43.989Z,1013.04
2018-07-01T08:17:44.020Z,1012.96
2018-07-01T08:18:44.047Z,1013.06
2018-07-01T08:19:44.074Z,1013.06
2018-07-01T08:20:44.105Z,1013.07
2018-07-01T08:21:44.135Z,1013.00
2018-07-01T08:22:44.167Z,1013.13
2018-07-01T08:23:44.197Z,1013.02
2018-07-01T08:24:44.227Z,1013.06
2018-07-01T08:25:44.257Z,1013.08
2018-07-01T08:26:44.287Z,1013.06
2018-07-01T08:27:44.313Z,1013.18
2018-07-01T08:28:44.347Z,1013.22
2018-07-01T08:29:44.376Z,1013.35
2018-07-01T08:30:44.405Z,1013.35
2018-07-01T08:31:44.438Z,1013.39
2018-07-01T08:32:44.467Z,1013.32
2018-07-01T08:33:44.497Z,1013.31
2018-07-01T08:34:44.531Z,1013.30
2018-07-01T08:35:44.558Z,1013.18
2018-07-01T08:36:44.591Z,1013.14
2018-07-01T08:37:44.622Z,1013.05
2018-07-01T08:38:44.653Z,1013.01
2018-07-01T08:39:44.680Z,1013.00
2018-07-01T08:40:44.711Z,1013.02
2018-07-01T08:41:44.745Z,1013.10
2018-07-01T08:42:44.773Z,1013.06
2018-07-01T08:43:44.803Z,1013.01
2018-07-01T08:44:44.834Z,1012.99
2018-07-01T08:45:44.864Z,1013.02
2018-07-01T08:46:44.896Z,1013.02
2018-07-01T08:47:44.926Z,1013.05
2018-07-01T08:48:44.958Z,1013.09
2018-07-01T08:49:44.990Z,1012.94
2018-07-01T08:50:45.028Z,1013.04
2018-07-01T08:51:45.054Z,1012.99
2018-07-01T08:52:45.088Z,1013.01
2018-07-01T08:53:45.114Z,1013.09
2018-07-01T08:54:45.146Z,1013.05
2018-07-01T08:56:45.205Z,1013.00
2018-07-01T08:57:45.243Z,1012.93
2018-07-01T08:58:45.273Z,1012.89
2018-07-01T08:59:45.301Z,1013.04
2018-07-01T09:00:45.333Z,1012.96
2018-07-01T09:01:45.361Z,1012.97
2018-07-01T09:02:45.426Z,1013.01
2018-07-01T09:03:45.426Z,1013.08
2018-07-01T09:04:45.456Z,1013.05
2018-07-01T09:05:45.485Z,1012.96
2018-07-01T09:06:45.518Z,1013.06
2018-07-01T09:07:45.549Z,1013.06
2018-07-01T09:08:45.585Z,1013.08
2018-07-01T09:09:45.612Z,1013.06
2018-07-01T09:10:45.641Z,1013.14
2018-07-01T09:11:45.672Z,1013.06
2018-07-01T09:12:45.702Z,1013.02
2018-07-01T09:13:45.734Z,1013.04
2018-07-01T09:14:45.767Z,1013.06
2018-07-01T09:15:45.800Z,1013.08
2018-07-01T09:16:45.843Z,1013.08
2018-07-01T09:17:45.860Z,1013.00
2018-07-01T09:18:45.890Z,1013.03
2018-07-01T09:19:45.923Z,1013.05
2018-07-01T09:20:45.952Z,1012.98
2018-07-01T09:21:45.984Z,1013.05
2018-07-01T09:22:46.014Z,1013.10
2018-07-01T09:23:46.048Z,1013.07
2018-07-01T09:24:46.081Z,1013.04
2018-07-01T09:25:46.110Z,1013.06
2018-07-01T09:26:46.140Z,1013.15
2018-07-01T09:27:46.170Z,1013.08
2018-07-01T09:28:46.241Z,1013.01
2018-07-01T09:29:46.232Z,1013.06
2018-07-01T09:30:46.265Z,1013.11
2018-07-01T09:31:46.294Z,1013.07
2018-07-01T09:32:49.016Z,1013.08
2018-07-01T09:33:48.981Z,1013.16
2018-07-01T09:34:46.465Z,1013.10
2018-07-01T09:35:46.422Z,1013.17
2018-07-01T09:36:46.457Z,1013.21
2018-07-01T09:37:46.485Z,1013.25
2018-07-01T09:38:46.514Z,1013.32
2018-07-01T09:39:46.549Z,1013.32
2018-07-01T09:40:46.585Z,1013.27
2018-07-01T09:41:46.609Z,1013.29
2018-07-01T09:42:46.640Z,1013.40
2018-07-01T09:43:46.675Z,1013.38
2018-07-01T09:44:46.710Z,1013.43
2018-07-01T09:45:46.738Z,1013.43
2018-07-01T09:46:46.770Z,1013.41
2018-07-01T09:47:46.803Z,1013.46
2018-07-01T09:48:47.850Z,1013.47
2018-07-01T09:49:46.865Z,1013.55
2018-07-01T09:50:46.944Z,1013.54
2018-07-01T09:51:46.924Z,1013.56
2018-07-01T09:52:46.958Z,1013.58
2018-07-01T09:53:46.988Z,1013.62
2018-07-01T09:54:47.019Z,1013.60
2018-07-01T09:55:47.050Z,1013.61
2018-07-01T09:56:47.081Z,1013.64
2018-07-01T09:57:47.117Z,1013.53
2018-07-01T09:58:47.143Z,1013.58
2018-07-01T09:59:47.178Z,1013.60
2018-07-01T10:00:47.203Z,1013.52
2018-07-01T10:01:47.236Z,1013.45
2018-07-01T10:02:47.268Z,1013.51
2018-07-01T10:03:47.299Z,1013.52
2018-07-01T10:04:47.330Z,1013.43
2018-07-01T10:05:47.359Z,1013.45
2018-07-01T10:06:47.387Z,1013.39
2018-07-01T10:07:47.417Z,1013.37
2018-07-01T10:08:47.450Z,1013.41
2018-07-01T10:09:47.478Z,1013.48
2018-07-01T10:10:47.512Z,1013.59
2018-07-01T10:11:47.543Z,1013.46
2018-07-01T10:12:47.572Z,1013.54
2018-07-01T10:13:47.600Z,1013.59
2018-07-01T10:14:47.631Z,1013.57
2018-07-01T10:15:47.664Z,1013.56
2018-07-01T10:16:47.694Z,1013.60
2018-07-01T10:17:47.722Z,1013.57
2018-07-01T10:18:47.815Z,1013.51
2018-07-01T10:19:47.784Z,1013.59
2018-07-01T10:20:47.819Z,1013.56
2018-07-01T10:21:47.850Z,1013.53
2018-07-01T10:22:47.874Z,1013.54
2018-07-01T10:23:47.906Z,1013.55
2018-07-01T10:24:47.940Z,1013.45
2018-07-01T10:25:47.970Z,1013.53
2018-07-01T10:26:47.997Z,1013.49
2018-07-01T10:27:48.030Z,1013.53
2018-07-01T10:28:48.060Z,1013.52
2018-07-01T10:29:48.089Z,1013.53
2018-07-01T10:30:48.122Z,1013.60
2018-07-01T10:31:48.151Z,1013.53
2018-07-01T10:32:48.182Z,1013.55
2018-07-01T10:33:48.215Z,1013.53
2018-07-01T10:34:48.240Z,1013.58
2018-07-01T10:35:48.273Z,1013.52
2018-07-01T10:36:48.302Z,1013.47
2018-07-01T10:37:48.334Z,1013.39
2018-07-01T10:38:48.365Z,1013.43
2018-07-01T10:39:48.395Z,1013.38
2018-07-01T10:40:48.423Z,1013.46
2018-07-01T10:41:48.455Z,1013.45
2018-07-01T10:42:48.486Z,1013.46
2018-07-01T10:43:48.519Z,1013.41
2018-07-01T10:44:48.545Z,1013.46
2018-07-01T10:45:48.638Z,1013.42
2018-07-01T10:46:48.610Z,1013.40
2018-07-01T10:47:48.639Z,1013.28
2018-07-01T10:48:48.669Z,1013.31
2018-07-01T10:49:48.696Z,1013.40
2018-07-01T10:50:48.730Z,1013.40
2018-07-01T10:51:48.758Z,1013.47
2018-07-01T10:52:48.789Z,1013.47
2018-07-01T10:53:48.819Z,1013.48
2018-07-01T10:54:48.851Z,1013.46
2018-07-01T10:55:48.884Z,1013.49
2018-07-01T10:56:48.911Z,1013.50
2018-07-01T10:57:48.942Z,1013.50
2018-07-01T10:58:48.974Z,1013.53
2018-07-01T10:59:49.004Z,1013.58
2018-07-01T11:00:49.033Z,1013.67
2018-07-01T11:01:49.066Z,1013.63
2018-07-01T11:02:49.096Z,1013.59
2018-07-01T11:03:49.162Z,1013.63
2018-07-01T11:04:49.155Z,1013.76
2018-07-01T11:05:49.268Z,1013.83
2018-07-01T11:06:49.216Z,1013.85
2018-07-01T11:07:49.250Z,1013.89
2018-07-01T11:08:49.278Z,1013.94
2018-07-01T11:09:49.307Z,1013.98
2018-07-01T11:10:49.341Z,1014.06
2018-07-01T11:11:49.504Z,1013.97
2018-07-01T11:12:49.400Z,1013.97
2018-07-01T11:13:49.431Z,1014.09
2018-07-01T11:14:49.460Z,1014.06
2018-07-01T11:15:49.495Z,1014.11
2018-07-01T11:16:49.522Z,1014.21
2018-07-01T11:17:49.555Z,1014.44
2018-07-01T11:18:49.582Z,1014.41
2018-07-01T11:19:49.614Z,1014.54
2018-07-01T11:20:49.644Z,1014.81
2018-07-01T11:21:49.674Z,1015.02
2018-07-01T11:22:49.706Z,1015.12
2018-07-01T11:23:49.740Z,1015.19
2018-07-01T11:24:49.767Z,1015.28
2018-07-01T11:25:49.800Z,1015.40
2018-07-01T11:26:49.967Z,1015.41
2018-07-01T11:27:49.859Z,1015.43
2018-07-01T11:28:49.890Z,1015.48
2018-07-01T11:29:49.923Z,1015.50
2018-07-01T11:30:49.951Z,1015.51
2018-07-01T11:31:49.984Z,1015.59
2018-07-01T11:32:50.045Z,1015.49
2018-07-01T11:33:50.043Z,1015.39
2018-07-01T11:34:50.076Z,1015.54
2018-07-01T11:35:50.107Z,1015.65
2018-07-01T11:36:50.135Z,1015.71
2018-07-01T11:37:50.165Z,1015.63
2018-07-01T11:38:50.198Z,1015.43
2018-07-01T11:39:50.230Z,1015.44
2018-07-01T11:40:50.260Z,1015.40
2018-07-01T11:41:50.288Z,1015.21
2018-07-01T11:42:50.320Z,1015.52
2018-07-01T11:43:50.350Z,1015.41
2018-07-01T11:44:50.384Z,1015.28
2018-07-01T11:45:50.410Z,1015.07
2018-07-01T11:46:50.440Z,1014.83
2018-07-01T11:47:50.472Z,1014.74
2018-07-01T11:48:50.498Z,1014.41
2018-07-01T11:49:50.530Z,1014.02
2018-07-01T11:50:50.562Z,1013.71
2018-07-01T11:51:50.592Z,1013.50
2018-07-01T11:52:50.619Z,1013.45
2018-07-01T11:53:50.652Z,1013.35
2018-07-01T11:54:50.687Z,1013.15
2018-07-01T11:55:50.712Z,1012.78
2018-07-01T11:56:50.744Z,1012.41
2018-07-01T11:57:50.768Z,1012.14
2018-07-01T11:58:50.799Z,1012.07
2018-07-01T11:59:50.892Z,1012.02
2018-07-01T12:00:50.860Z,1012.00
2018-07-01T12:01:50.895Z,1011.98
2018-07-01T12:02:50.920Z,1011.95
2018-07-01T12:03:50.953Z,1011.94
2018-07-01T12:05:16.204Z,1011.88
2018-07-01T12:05:51.008Z,1011.93
2018-07-01T12:06:51.040Z,1011.88